createdAt,value
2016-11-26T00:00:40.644Z,1001.32
2016-11-26T00:01:50.690Z,1001.28
2016-11-26T00:03:01.401Z,1001.3
2016-11-26T00:04:11.143Z,1001.28
2016-11-26T00:05:21.492Z,1001.31
2016-11-26T00:06:31.538Z,1001.32
2016-11-26T00:07:41.664Z,1001.32
2016-11-26T00:08:52.002Z,1001.36
2016-11-26T00:10:02.329Z,1001.33
2016-11-26T00:11:12.660Z,1001.32
2016-11-26T00:12:22.672Z,1001.31
2016-11-26T00:13:33.003Z,1001.35
2016-11-26T00:14:42.714Z,1001.37
2016-11-26T00:15:52.738Z,1001.34
2016-11-26T00:17:02.929Z,1001.4
2016-11-26T00:18:13.481Z,1001.41
2016-11-26T00:19:23.219Z,1001.4
2016-11-26T00:20:33.549Z,1001.44
2016-11-26T00:21:43.915Z,1001.43
2016-11-26T00:22:54.271Z,1001.44
2016-11-26T00:24:04.308Z,1001.44
2016-11-26T00:25:14.376Z,1001.43
2016-11-26T00:26:24.716Z,1001.4
2016-11-26T00:27:35.053Z,1001.4
2016-11-26T00:28:45.385Z,1001.42
2016-11-26T00:29:55.717Z,1001.42
2016-11-26T00:31:06.053Z,1001.35
2016-11-26T00:32:16.070Z,1001.34
2016-11-26T00:33:26.423Z,1001.35
2016-11-26T00:34:36.433Z,1001.33
2016-11-26T00:35:46.761Z,1001.35
2016-11-26T00:36:56.791Z,1001.34
2016-11-26T00:38:06.813Z,1001.42
2016-11-26T00:39:17.144Z,1001.41
2016-11-26T00:40:27.481Z,1001.37
2016-11-26T00:41:37.827Z,1001.42
2016-11-26T00:42:47.856Z,1001.39
2016-11-26T00:43:58.206Z,1001.38
2016-11-26T00:45:08.228Z,1001.38
2016-11-26T00:46:18.249Z,1001.36
2016-11-26T00:47:28.607Z,1001.38
2016-11-26T00:48:38.934Z,1001.34
2016-11-26T00:49:48.631Z,1001.36
2016-11-26T00:50:58.961Z,1001.37
2016-11-26T00:52:09.303Z,1001.32
2016-11-26T00:53:19.005Z,1001.32
2016-11-26T00:54:29.027Z,1001.38
2016-11-26T00:55:39.359Z,1001.36
2016-11-26T00:56:49.469Z,1001.31
2016-11-26T00:57:59.503Z,1001.36
2016-11-26T00:59:09.854Z,1001.38
2016-11-26T01:00:19.896Z,1001.34
2016-11-26T01:01:29.918Z,1001.34
2016-11-26T01:02:39.627Z,1001.36
2016-11-26T01:03:49.655Z,1001.37
2016-11-26T01:04:59.993Z,1001.37
2016-11-26T01:06:09.373Z,1001.35
2016-11-26T01:07:19.410Z,1001.36
2016-11-26T01:08:29.458Z,1001.31
2016-11-26T01:09:39.784Z,1001.36
2016-11-26T01:10:49.810Z,1001.41
2016-11-26T01:11:59.523Z,1001.37
2016-11-26T01:13:09.847Z,1001.33
2016-11-26T01:14:19.600Z,1001.35
2016-11-26T01:15:29.953Z,1001.37
2016-11-26T01:16:39.969Z,1001.38
2016-11-26T01:17:49.694Z,1001.32
2016-11-26T01:18:59.708Z,1001.35
2016-11-26T01:20:10.069Z,1001.32
2016-11-26T01:21:19.767Z,1001.35
2016-11-26T01:22:30.106Z,1001.3
2016-11-26T01:23:39.813Z,1001.3
2016-11-26T01:24:49.833Z,1001.34
2016-11-26T01:26:00.171Z,1001.31
2016-11-26T01:27:10.188Z,1001.36
2016-11-26T01:28:19.897Z,1001.33
2016-11-26T01:29:29.966Z,1001.32
2016-11-26T01:30:39.664Z,1001.28
2016-11-26T01:31:49.996Z,1001.3
2016-11-26T01:33:00.015Z,1001.31
2016-11-26T01:34:10.340Z,1001.31
2016-11-26T01:35:20.377Z,1001.32
2016-11-26T01:36:30.697Z,1001.32
2016-11-26T01:37:40.712Z,1001.33
2016-11-26T01:38:50.102Z,1001.28
2016-11-26T01:40:00.112Z,1001.29
2016-11-26T01:41:10.156Z,1001.28
2016-11-26T01:42:20.177Z,1001.33
2016-11-26T01:43:30.247Z,1001.29
2016-11-26T01:44:39.950Z,1001.31
2016-11-26T01:45:49.642Z,1001.35
2016-11-26T01:46:59.667Z,1001.37
2016-11-26T01:48:10.043Z,1001.38
2016-11-26T01:49:20.060Z,1001.37
2016-11-26T01:50:30.070Z,1001.34
2016-11-26T01:51:40.089Z,1001.39
2016-11-26T01:52:49.786Z,1001.34
2016-11-26T01:54:00.122Z,1001.33
2016-11-26T01:55:10.141Z,1001.34
2016-11-26T01:56:20.471Z,1001.34
2016-11-26T01:57:30.817Z,1001.3
2016-11-26T01:58:41.158Z,1001.29
2016-11-26T01:59:50.571Z,1001.28
2016-11-26T02:01:00.903Z,1001.29
2016-11-26T02:02:11.256Z,1001.25
2016-11-26T02:03:21.286Z,1001.3
2016-11-26T02:04:31.310Z,1001.26
2016-11-26T02:05:41.024Z,1001.26
2016-11-26T02:06:51.357Z,1001.24
2016-11-26T02:08:01.694Z,1001.23
2016-11-26T02:09:12.065Z,1001.24
2016-11-26T02:10:22.087Z,1001.24
2016-11-26T02:11:32.099Z,1001.2
2016-11-26T02:12:42.113Z,1001.23
2016-11-26T02:13:52.147Z,1001.19
2016-11-26T02:15:01.887Z,1001.19
2016-11-26T02:16:12.214Z,1001.19
2016-11-26T02:17:22.547Z,1001.16
2016-11-26T02:18:32.268Z,1001.15
2016-11-26T02:19:42.625Z,1001.12
2016-11-26T02:20:52.636Z,1001.13
2016-11-26T02:22:02.963Z,1001.11
2016-11-26T02:23:12.974Z,1001.11
2016-11-26T02:24:22.986Z,1001.09
2016-11-26T02:25:32.999Z,1001.08
2016-11-26T02:26:43.580Z,1001.06
2016-11-26T02:27:53.273Z,1001.09
2016-11-26T02:29:03.293Z,1001.11
2016-11-26T02:30:13.624Z,1001.11
2016-11-26T02:31:23.631Z,1001.09
2016-11-26T02:32:33.658Z,1001.09
2016-11-26T02:33:43.701Z,1001.08
2016-11-26T02:34:54.033Z,1001.03
2016-11-26T02:36:04.033Z,1001.03
2016-11-26T02:37:13.741Z,1001.02
2016-11-26T02:38:24.066Z,1001.01
2016-11-26T02:39:33.784Z,1000.98
2016-11-26T02:40:44.115Z,1000.98
2016-11-26T02:41:54.442Z,1000.99
2016-11-26T02:43:04.798Z,1001
2016-11-26T02:44:14.816Z,1000.97
2016-11-26T02:45:24.859Z,1001
2016-11-26T02:46:34.861Z,1001.01
2016-11-26T02:47:44.903Z,1000.97
2016-11-26T02:48:55.238Z,1001.02
2016-11-26T02:50:05.266Z,1001
2016-11-26T02:51:15.591Z,1000.98
2016-11-26T02:52:25.915Z,1001
2016-11-26T02:53:35.928Z,1001
2016-11-26T02:54:45.925Z,1000.95
2016-11-26T02:55:56.253Z,1000.97
2016-11-26T02:57:06.589Z,1000.99
2016-11-26T02:58:16.961Z,1000.96
2016-11-26T02:59:27.302Z,1000.95
2016-11-26T03:00:37.338Z,1000.91
2016-11-26T03:32:28.170Z,1000.78
2016-11-26T03:33:38.519Z,1000.78
2016-11-26T03:34:48.869Z,1000.83
2016-11-26T03:35:59.195Z,1000.82
2016-11-26T03:37:09.211Z,1000.8
2016-11-26T03:38:19.533Z,1000.8
2016-11-26T03:39:29.855Z,1000.85
2016-11-26T03:40:40.166Z,1000.87
2016-11-26T03:41:50.489Z,1000.81
2016-11-26T03:43:00.816Z,1000.85
2016-11-26T03:44:11.139Z,1000.84
2016-11-26T03:45:21.468Z,1000.85
2016-11-26T03:46:31.798Z,1000.82
2016-11-26T03:47:41.811Z,1000.86
2016-11-26T03:48:52.140Z,1000.87
2016-11-26T03:50:02.171Z,1000.91
2016-11-26T03:51:12.183Z,1000.93
2016-11-26T03:52:22.209Z,1000.93
2016-11-26T03:53:32.521Z,1000.91
2016-11-26T03:54:42.232Z,1000.93
2016-11-26T03:55:52.251Z,1000.93
2016-11-26T03:57:01.982Z,1000.94
2016-11-26T03:58:11.688Z,1000.97
2016-11-26T03:59:21.727Z,1000.9
2016-11-26T04:00:31.741Z,1000.92
2016-11-26T04:01:41.768Z,1000.89
2016-11-26T04:02:52.104Z,1000.88
2016-11-26T04:04:02.122Z,1000.88
2016-11-26T04:05:11.846Z,1000.87
2016-11-26T04:06:21.870Z,1000.83
2016-11-26T04:07:32.209Z,1000.9
2016-11-26T04:08:42.541Z,1000.9
2016-11-26T04:09:52.885Z,1000.86
2016-11-26T04:11:02.901Z,1000.86
2016-11-26T04:12:13.232Z,1000.9
2016-11-26T04:13:23.241Z,1000.9
2016-11-26T04:14:32.956Z,1000.87
2016-11-26T04:15:43.304Z,1000.9
2016-11-26T04:16:53.640Z,1000.88
2016-11-26T04:18:03.359Z,1000.9
2016-11-26T04:19:13.684Z,1000.85
2016-11-26T04:20:24.015Z,1000.88
2016-11-26T04:21:33.392Z,1000.9
2016-11-26T04:22:43.419Z,1000.87
2016-11-26T04:23:53.785Z,1000.88
2016-11-26T04:25:04.112Z,1000.86
2016-11-26T04:26:14.440Z,1000.88
2016-11-26T04:27:24.765Z,1000.93
2016-11-26T04:28:35.128Z,1000.91
2016-11-26T04:29:45.484Z,1000.89
2016-11-26T04:30:55.822Z,1000.89
2016-11-26T04:32:05.523Z,1000.88
2016-11-26T04:33:15.541Z,1000.92
2016-11-26T04:34:25.877Z,1000.88
2016-11-26T04:35:35.903Z,1000.89
2016-11-26T04:36:45.919Z,1000.9
2016-11-26T04:37:55.311Z,1000.91
2016-11-26T04:39:05.638Z,1000.95
2016-11-26T04:40:15.654Z,1000.88
2016-11-26T04:41:26.006Z,1000.89
2016-11-26T04:42:36.343Z,1000.89
2016-11-26T04:43:46.639Z,1000.93
2016-11-26T04:44:56.348Z,1000.91
2016-11-26T04:46:06.713Z,1000.89
2016-11-26T04:47:17.054Z,1000.9
2016-11-26T04:48:27.376Z,1000.85
2016-11-26T04:49:37.085Z,1000.87
2016-11-26T04:50:47.406Z,1000.88
2016-11-26T04:51:56.833Z,1000.83
2016-11-26T04:53:06.528Z,1000.84
2016-11-26T04:54:16.551Z,1000.82
2016-11-26T04:55:26.880Z,1000.82
2016-11-26T04:56:36.924Z,1000.79
2016-11-26T04:57:46.947Z,1000.81
2016-11-26T04:58:57.279Z,1000.81
2016-11-26T05:00:07.326Z,1000.82
2016-11-26T05:01:17.650Z,1000.79
2016-11-26T05:02:27.652Z,1000.79
2016-11-26T05:03:37.981Z,1000.81
2016-11-26T05:04:47.692Z,1000.82
2016-11-26T05:05:58.027Z,1000.76
2016-11-26T05:07:08.367Z,1000.79
2016-11-26T05:08:18.686Z,1000.75
2016-11-26T05:09:29.022Z,1000.76
2016-11-26T05:10:39.345Z,1000.75
2016-11-26T05:11:49.692Z,1000.77
2016-11-26T05:12:59.398Z,1000.77
2016-11-26T05:14:09.415Z,1000.71
2016-11-26T05:15:19.741Z,1000.76
2016-11-26T05:16:29.799Z,1000.79
2016-11-26T05:17:40.120Z,1000.79
2016-11-26T05:18:50.136Z,1000.82
2016-11-26T05:20:00.149Z,1000.84
2016-11-26T05:21:10.361Z,1000.79
2016-11-26T05:22:20.696Z,1000.81
2016-11-26T05:23:30.709Z,1000.8
2016-11-26T05:24:41.037Z,1000.79
2016-11-26T05:25:51.063Z,1000.79
2016-11-26T05:27:01.389Z,1000.79
2016-11-26T05:28:11.722Z,1000.79
2016-11-26T05:29:22.048Z,1000.77
2016-11-26T05:30:32.059Z,1000.79
2016-11-26T05:31:41.762Z,1000.78
2016-11-26T05:32:52.090Z,1000.8
2016-11-26T05:34:02.131Z,1000.8
2016-11-26T05:35:12.507Z,1000.78
2016-11-26T05:36:22.527Z,1000.78
2016-11-26T05:37:32.860Z,1000.77
2016-11-26T05:38:42.872Z,1000.75
2016-11-26T05:39:52.878Z,1000.71
2016-11-26T05:41:03.206Z,1000.66
2016-11-26T05:42:12.926Z,1000.66
2016-11-26T05:43:22.328Z,1000.65
2016-11-26T05:44:32.644Z,1000.66
2016-11-26T05:45:42.671Z,1000.68
2016-11-26T05:46:52.373Z,1000.61
2016-11-26T05:48:02.714Z,1000.67
2016-11-26T05:49:12.411Z,1000.7
2016-11-26T05:50:22.444Z,1000.68
2016-11-26T05:51:32.774Z,1000.66
2016-11-26T05:52:43.132Z,1000.65
2016-11-26T05:53:53.454Z,1000.66
2016-11-26T05:55:03.785Z,1000.69
2016-11-26T05:56:14.109Z,1000.68
2016-11-26T05:57:24.447Z,1000.69
2016-11-26T05:58:34.776Z,1000.7
2016-11-26T05:59:44.473Z,1000.65
2016-11-26T06:00:54.803Z,1000.69
2016-11-26T06:02:05.147Z,1000.69
2016-11-26T06:03:15.161Z,1000.7
2016-11-26T06:04:25.519Z,1000.68
2016-11-26T06:05:35.222Z,1000.69
2016-11-26T06:06:45.562Z,1000.76
2016-11-26T06:07:55.574Z,1000.75
2016-11-26T06:09:05.285Z,1000.7
2016-11-26T06:10:15.627Z,1000.76
2016-11-26T06:11:25.340Z,1000.73
2016-11-26T06:12:35.351Z,1000.7
2016-11-26T06:13:45.368Z,1000.73
2016-11-26T06:14:55.689Z,1000.72
2016-11-26T06:16:05.715Z,1000.71
2016-11-26T06:17:16.059Z,1000.72
2016-11-26T06:18:26.389Z,1000.74
2016-11-26T06:19:36.409Z,1000.77
2016-11-26T06:20:46.752Z,1000.8
2016-11-26T06:21:57.091Z,1000.78
2016-11-26T06:23:07.147Z,1000.79
2016-11-26T06:24:17.478Z,1000.8
2016-11-26T06:25:27.803Z,1000.79
2016-11-26T06:26:37.501Z,1000.77
2016-11-26T06:27:47.813Z,1000.73
2016-11-26T06:28:58.139Z,1000.76
2016-11-26T06:30:08.181Z,1000.73
2016-11-26T06:31:17.917Z,1000.72
2016-11-26T06:32:28.244Z,1000.69
2016-11-26T06:33:38.295Z,1000.68
2016-11-26T06:34:48.617Z,1000.7
2016-11-26T06:35:58.642Z,1000.7
2016-11-26T06:37:08.987Z,1000.66
2016-11-26T06:38:18.992Z,1000.72
2016-11-26T06:39:29.331Z,1000.73
2016-11-26T06:40:39.359Z,1000.74
2016-11-26T06:41:49.682Z,1000.76
2016-11-26T06:42:59.720Z,1000.77
2016-11-26T06:44:10.071Z,1000.8
2016-11-26T06:45:20.399Z,1000.8
2016-11-26T06:46:30.425Z,1000.84
2016-11-26T06:47:40.470Z,1000.81
2016-11-26T06:48:50.787Z,1000.82
2016-11-26T06:50:00.800Z,1000.82
2016-11-26T06:51:11.156Z,1000.79
2016-11-26T06:52:20.872Z,1000.76
2016-11-26T06:53:30.590Z,1000.77
2016-11-26T06:54:40.614Z,1000.77
2016-11-26T06:55:50.942Z,1000.74
2016-11-26T06:57:01.284Z,1000.77
2016-11-26T06:58:11.305Z,1000.74
2016-11-26T06:59:21.635Z,1000.76
2016-11-26T07:00:31.672Z,1000.73
2016-11-26T07:01:41.380Z,1000.72
2016-11-26T07:02:51.402Z,1000.67
2016-11-26T07:04:01.743Z,1000.7
2016-11-26T07:05:11.455Z,1000.73
2016-11-26T07:06:21.781Z,1000.71
2016-11-26T07:07:31.797Z,1000.71
2016-11-26T07:08:42.133Z,1000.74
2016-11-26T07:09:52.473Z,1000.73
2016-11-26T07:11:02.859Z,1000.73
2016-11-26T07:12:13.207Z,1000.75
2016-11-26T07:13:23.539Z,1000.79
2016-11-26T07:14:33.854Z,1000.76
2016-11-26T07:15:43.253Z,1000.74
2016-11-26T07:16:52.959Z,1000.76
2016-11-26T07:18:02.974Z,1000.73
2016-11-26T07:19:13.345Z,1000.74
2016-11-26T07:20:23.362Z,1000.75
2016-11-26T07:21:33.373Z,1000.78
2016-11-26T07:22:43.390Z,1000.8
2016-11-26T07:23:53.116Z,1000.78
2016-11-26T07:25:02.824Z,1000.77
2016-11-26T07:26:12.857Z,1000.76
2016-11-26T07:27:22.876Z,1000.73
2016-11-26T07:28:32.578Z,1000.71
2016-11-26T07:29:42.596Z,1000.7
2016-11-26T07:30:52.606Z,1000.72
2016-11-26T07:32:02.929Z,1000.72
2016-11-26T07:33:12.940Z,1000.67
2016-11-26T07:34:23.306Z,1000.68
2016-11-26T07:35:33.643Z,1000.7
2016-11-26T07:36:43.663Z,1000.68
2016-11-26T07:37:53.731Z,1000.72
2016-11-26T07:39:04.079Z,1000.76
2016-11-26T07:40:14.097Z,1000.78
2016-11-26T07:41:24.417Z,1000.78
2016-11-26T07:42:34.424Z,1000.81
2016-11-26T07:43:44.175Z,1000.79
2016-11-26T07:44:54.187Z,1000.79
2016-11-26T07:46:04.506Z,1000.79
2016-11-26T07:47:13.926Z,1000.82
2016-11-26T07:48:23.948Z,1000.81
2016-11-26T07:49:34.330Z,1000.82
2016-11-26T07:50:44.372Z,1000.81
2016-11-26T07:51:54.758Z,1000.8
2016-11-26T07:53:05.120Z,1000.83
2016-11-26T07:54:15.144Z,1000.85
2016-11-26T07:55:25.523Z,1000.86
2016-11-26T07:56:34.939Z,1000.88
2016-11-26T07:57:44.945Z,1000.81
2016-11-26T07:58:55.292Z,1000.8
2016-11-26T08:00:05.307Z,1000.76
2016-11-26T08:01:15.637Z,1000.75
2016-11-26T08:02:25.667Z,1000.71
2016-11-26T08:03:35.384Z,1000.71
2016-11-26T08:04:45.426Z,1000.67
2016-11-26T08:05:55.757Z,1000.68
2016-11-26T08:07:05.789Z,1000.68
2016-11-26T08:08:16.127Z,1000.72
2016-11-26T08:09:26.467Z,1000.68
2016-11-26T08:10:36.521Z,1000.68
2016-11-26T08:11:46.556Z,1000.64
2016-11-26T08:12:56.879Z,1000.64
2016-11-26T08:14:06.904Z,1000.65
2016-11-26T08:15:17.252Z,1000.58
2016-11-26T08:16:27.283Z,1000.67
2016-11-26T08:17:37.309Z,1000.64
2016-11-26T08:18:47.335Z,1000.64
2016-11-26T08:19:57.678Z,1000.64
2016-11-26T08:21:08.020Z,1000.63
2016-11-26T08:22:17.736Z,1000.62
2016-11-26T08:23:27.744Z,1000.68
2016-11-26T08:24:38.075Z,1000.63
2016-11-26T08:25:47.782Z,1000.63
2016-11-26T08:26:58.103Z,1000.62
2016-11-26T08:28:08.423Z,1000.63
2016-11-26T08:29:18.437Z,1000.61
2016-11-26T08:30:28.471Z,1000.63
2016-11-26T08:31:38.489Z,1000.61
2016-11-26T08:32:48.501Z,1000.64
2016-11-26T08:33:58.848Z,1000.65
2016-11-26T08:35:08.881Z,1000.66
2016-11-26T08:36:18.917Z,1000.65
2016-11-26T08:37:28.644Z,1000.63
2016-11-26T08:38:38.990Z,1000.64
2016-11-26T08:39:49.328Z,1000.67
2016-11-26T08:40:59.664Z,1000.66
2016-11-26T08:42:09.686Z,1000.64
2016-11-26T08:43:20.017Z,1000.68
2016-11-26T08:44:29.730Z,1000.64
2016-11-26T08:45:40.101Z,1000.68
2016-11-26T08:46:50.433Z,1000.69
2016-11-26T08:48:00.786Z,1000.6
2016-11-26T08:49:10.497Z,1000.61
2016-11-26T08:50:20.822Z,1000.59
2016-11-26T08:51:31.154Z,1000.56
2016-11-26T08:52:41.192Z,1000.53
2016-11-26T08:53:51.211Z,1000.54
2016-11-26T08:55:01.530Z,1000.52
2016-11-26T08:56:11.312Z,1000.52
2016-11-26T08:57:21.646Z,1000.57
2016-11-26T08:58:31.971Z,1000.53
2016-11-26T08:59:41.981Z,1000.52
2016-11-26T09:00:52.022Z,1000.5
2016-11-26T09:02:02.355Z,1000.47
2016-11-26T09:03:12.381Z,1000.43
2016-11-26T09:04:22.713Z,1000.45
2016-11-26T09:05:32.791Z,1000.42
2016-11-26T09:06:43.155Z,1000.49
2016-11-26T09:07:52.873Z,1000.51
2016-11-26T09:09:03.218Z,1000.5
2016-11-26T09:10:13.236Z,1000.47
2016-11-26T09:11:23.248Z,1000.47
2016-11-26T09:12:33.590Z,1000.43
2016-11-26T09:13:43.924Z,1000.38
2016-11-26T09:14:54.271Z,1000.36
2016-11-26T09:16:04.295Z,1000.39
2016-11-26T09:17:14.330Z,1000.38
2016-11-26T09:18:24.357Z,1000.37
2016-11-26T09:19:34.383Z,1000.38
2016-11-26T09:20:44.420Z,1000.35
2016-11-26T09:21:54.767Z,1000.3
2016-11-26T09:23:05.134Z,1000.33
2016-11-26T09:24:14.865Z,1000.26
2016-11-26T09:25:25.208Z,1000.27
2016-11-26T09:26:35.224Z,1000.29
2016-11-26T09:27:45.570Z,1000.26
2016-11-26T09:28:55.902Z,1000.31
2016-11-26T09:30:06.244Z,1000.3
2016-11-26T09:31:16.591Z,1000.3
2016-11-26T09:32:26.963Z,1000.31
2016-11-26T09:33:36.670Z,1000.31
2016-11-26T09:34:46.069Z,1000.29
2016-11-26T09:35:56.441Z,1000.25
2016-11-26T09:37:06.778Z,1000.26
2016-11-26T09:38:16.496Z,1000.21
2016-11-26T09:39:26.523Z,1000.17
2016-11-26T09:40:36.533Z,1000.15
2016-11-26T09:41:46.555Z,1000.14
2016-11-26T09:42:56.267Z,1000.15
2016-11-26T09:44:06.610Z,1000.13
2016-11-26T09:45:16.335Z,1000.11
2016-11-26T09:46:26.067Z,1000.1
2016-11-26T09:47:36.398Z,1000.04
2016-11-26T09:48:46.470Z,1000.05
2016-11-26T09:49:56.256Z,1000.02
2016-11-26T09:51:06.594Z,1000.04
2016-11-26T09:52:16.931Z,999.98
2016-11-26T09:53:27.276Z,1000
2016-11-26T09:54:37.638Z,999.95
2016-11-26T09:55:48.016Z,999.93
2016-11-26T09:56:58.399Z,999.91
2016-11-26T09:58:08.713Z,999.94
2016-11-26T09:59:18.786Z,999.91
2016-11-26T10:00:28.802Z,999.85
2016-11-26T10:01:38.826Z,999.81
2016-11-26T10:02:49.185Z,999.83
2016-11-26T10:03:59.553Z,999.79
2016-11-26T10:05:09.569Z,999.77
2016-11-26T10:06:19.597Z,999.73
2016-11-26T10:07:29.920Z,999.72
2016-11-26T10:08:40.260Z,999.77
2016-11-26T10:09:50.592Z,999.7
2016-11-26T10:11:00.624Z,999.74
2016-11-26T10:12:10.970Z,999.68
2016-11-26T10:13:21.300Z,999.63
2016-11-26T10:14:31.634Z,999.65
2016-11-26T10:15:41.965Z,999.67
2016-11-26T10:16:51.992Z,999.68
2016-11-26T10:18:02.023Z,999.67
2016-11-26T10:19:12.356Z,999.7
2016-11-26T10:20:22.690Z,999.65
2016-11-26T10:21:32.700Z,999.6
2016-11-26T10:22:42.453Z,999.57
2016-11-26T10:23:52.799Z,999.51
2016-11-26T10:25:02.524Z,999.52
2016-11-26T10:26:12.578Z,999.56
2016-11-26T10:27:22.908Z,999.55
2016-11-26T10:28:33.239Z,999.51
2016-11-26T10:29:43.573Z,999.48
2016-11-26T10:30:53.594Z,999.46
2016-11-26T10:32:03.935Z,999.48
2016-11-26T10:33:13.381Z,999.45
2016-11-26T10:34:23.433Z,999.47
2016-11-26T10:35:33.764Z,999.49
2016-11-26T10:36:44.096Z,999.42
2016-11-26T10:37:53.829Z,999.44
2016-11-26T10:39:04.201Z,999.42
2016-11-26T10:40:13.926Z,999.39
2016-11-26T10:41:24.278Z,999.38
2016-11-26T10:42:34.611Z,999.34
2016-11-26T10:43:44.937Z,999.3
2016-11-26T10:44:54.977Z,999.29
2016-11-26T10:46:05.312Z,999.26
2016-11-26T10:47:15.709Z,999.23
2016-11-26T10:48:26.089Z,999.23
2016-11-26T10:49:36.475Z,999.24
2016-11-26T10:50:46.824Z,999.17
2016-11-26T10:51:57.164Z,999.22
2016-11-26T10:53:07.508Z,999.18
2016-11-26T10:54:17.857Z,999.18
2016-11-26T10:55:28.249Z,999.19
2016-11-26T10:56:37.963Z,999.17
2016-11-26T10:57:48.005Z,999.17
2016-11-26T10:58:58.040Z,999.12
2016-11-26T11:00:07.770Z,999.11
2016-11-26T11:01:18.110Z,999.14
2016-11-26T11:02:28.165Z,999.17
2016-11-26T11:03:38.507Z,999.16
2016-11-26T11:06:12.856Z,999.1
2016-11-26T11:07:23.186Z,999.08
2016-11-26T11:08:33.203Z,999.08
2016-11-26T11:09:43.240Z,999.06
2016-11-26T11:10:53.318Z,999.02
2016-11-26T11:12:03.675Z,999.02
2016-11-26T11:13:14.006Z,998.98
2016-11-26T11:14:24.056Z,998.96
2016-11-26T11:15:34.400Z,998.91
2016-11-26T11:16:44.120Z,998.96
2016-11-26T11:17:54.452Z,998.95
2016-11-26T11:19:04.475Z,998.91
2016-11-26T11:20:14.230Z,998.92
2016-11-26T11:21:24.567Z,998.89
2016-11-26T11:22:34.919Z,998.87
2016-11-26T11:23:44.949Z,998.81
2016-11-26T11:24:55.303Z,998.84
2016-11-26T11:26:04.699Z,998.77
2016-11-26T11:27:14.715Z,998.81
2016-11-26T11:28:24.742Z,998.79
2016-11-26T11:29:35.065Z,998.78
2016-11-26T11:30:45.086Z,998.79
2016-11-26T11:31:55.423Z,998.81
2016-11-26T11:33:05.459Z,998.81
2016-11-26T11:34:15.511Z,998.83
2016-11-26T11:35:25.839Z,998.85
2016-11-26T11:36:36.220Z,998.82
2016-11-26T11:37:46.561Z,998.82
2016-11-26T11:38:56.596Z,998.76
2016-11-26T11:40:06.621Z,998.83
2016-11-26T11:41:16.345Z,998.81
2016-11-26T11:42:26.678Z,998.78
2016-11-26T11:43:36.709Z,998.79
2016-11-26T11:44:46.780Z,998.71
2016-11-26T11:45:56.812Z,998.68
2016-11-26T11:47:06.844Z,998.73
2016-11-26T11:48:16.889Z,998.72
2016-11-26T11:49:26.918Z,998.76
2016-11-26T11:50:37.284Z,998.71
2016-11-26T11:51:47.311Z,998.64
2016-11-26T11:52:57.040Z,998.64
2016-11-26T11:54:07.390Z,998.64
2016-11-26T11:55:17.739Z,998.66
2016-11-26T11:56:28.118Z,998.62
2016-11-26T11:57:37.848Z,998.59
2016-11-26T11:58:47.893Z,998.61
2016-11-26T11:59:58.229Z,998.55
2016-11-26T12:01:08.263Z,998.55
2016-11-26T12:02:17.372Z,998.51
2016-11-26T12:03:27.419Z,998.48
2016-11-26T12:04:37.492Z,998.51
2016-11-26T12:05:47.217Z,998.47
2016-11-26T12:06:57.543Z,998.46
2016-11-26T12:08:07.894Z,998.49
2016-11-26T12:09:18.300Z,998.46
2016-11-26T12:10:28.646Z,998.45
2016-11-26T12:11:38.386Z,998.45
2016-11-26T12:12:48.721Z,998.47
2016-11-26T12:13:59.063Z,998.42
2016-11-26T12:15:09.114Z,998.4
2016-11-26T12:16:19.159Z,998.39
2016-11-26T12:17:29.207Z,998.34
2016-11-26T12:18:39.564Z,998.42
2016-11-26T12:19:49.602Z,998.33
2016-11-26T12:20:59.314Z,998.34
2016-11-26T12:22:09.681Z,998.31
2016-11-26T12:23:20.036Z,998.31
2016-11-26T12:24:30.397Z,998.26
2016-11-26T12:25:40.746Z,998.26
2016-11-26T12:26:50.459Z,998.25
2016-11-26T12:28:00.803Z,998.19
2016-11-26T12:29:10.838Z,998.21
2016-11-26T12:30:21.189Z,998.13
2016-11-26T12:31:31.217Z,998.08
2016-11-26T12:32:41.565Z,998.05
2016-11-26T12:33:51.845Z,998.07
2016-11-26T12:35:01.887Z,998.06
2016-11-26T12:36:12.224Z,998.06
2016-11-26T12:37:22.246Z,998.06
2016-11-26T12:38:32.609Z,998
2016-11-26T12:39:43.007Z,997.97
2016-11-26T12:40:53.372Z,997.93
2016-11-26T12:42:03.402Z,997.92
2016-11-26T12:43:13.750Z,997.9
2016-11-26T12:44:23.486Z,997.85
2016-11-26T12:45:33.865Z,997.88
2016-11-26T12:46:44.202Z,997.88
2016-11-26T12:47:53.926Z,997.86
2016-11-26T12:49:03.988Z,997.87
2016-11-26T12:50:14.053Z,997.87
2016-11-26T12:51:24.406Z,997.92
2016-11-26T12:52:34.441Z,997.87
2016-11-26T12:53:44.480Z,997.85
2016-11-26T12:54:54.841Z,997.84
2016-11-26T12:56:04.868Z,997.84
2016-11-26T12:57:15.229Z,997.78
2016-11-26T12:58:25.564Z,997.74
2016-11-26T12:59:35.902Z,997.74
2016-11-26T13:00:45.625Z,997.67
2016-11-26T13:01:55.956Z,997.62
2016-11-26T13:03:06.003Z,997.68
2016-11-26T13:04:16.338Z,997.66
2016-11-26T13:05:26.372Z,997.7
2016-11-26T13:06:36.392Z,997.73
2016-11-26T13:07:46.756Z,997.73
2016-11-26T13:08:56.473Z,997.62
2016-11-26T13:10:06.499Z,997.63
2016-11-26T13:11:16.821Z,997.59
2016-11-26T13:12:27.158Z,997.57
2016-11-26T13:13:37.443Z,997.56
2016-11-26T13:14:47.484Z,997.56
2016-11-26T13:15:57.503Z,997.52
2016-11-26T13:17:06.894Z,997.48
2016-11-26T13:18:17.235Z,997.47
2016-11-26T13:19:27.269Z,997.42
2016-11-26T13:20:37.298Z,997.42
2016-11-26T13:21:47.641Z,997.4
2016-11-26T13:22:57.677Z,997.43
2016-11-26T13:24:08.060Z,997.41
2016-11-26T13:25:18.396Z,997.32
2016-11-26T13:26:28.744Z,997.38
2016-11-26T13:27:38.778Z,997.39
2016-11-26T13:28:48.502Z,997.39
2016-11-26T13:29:58.557Z,997.36
2016-11-26T13:31:08.300Z,997.34
2016-11-26T13:32:18.645Z,997.31
2016-11-26T13:33:29.043Z,997.31
2016-11-26T13:34:39.397Z,997.27
2016-11-26T13:35:49.763Z,997.25
2016-11-26T13:36:59.785Z,997.26
2016-11-26T13:38:09.851Z,997.2
2016-11-26T13:39:19.887Z,997.21
2016-11-26T13:40:29.944Z,997.19
2016-11-26T13:41:40.298Z,997.18
2016-11-26T13:42:50.338Z,997.16
2016-11-26T13:44:00.693Z,997.22
2016-11-26T13:45:11.041Z,997.19
2016-11-26T13:46:21.066Z,997.16
2016-11-26T13:47:31.432Z,997.14
2016-11-26T13:48:41.460Z,997.13
2016-11-26T13:49:51.817Z,997.1
2016-11-26T13:51:01.525Z,997.09
2016-11-26T13:52:11.887Z,997.1
2016-11-26T13:53:22.238Z,997.12
2016-11-26T13:54:31.952Z,997.12
2016-11-26T13:55:42.291Z,997.12
2016-11-26T13:56:52.632Z,997.1
2016-11-26T13:58:02.330Z,997.08
2016-11-26T13:59:12.666Z,997.06
2016-11-26T14:00:22.687Z,997.06
2016-11-26T14:01:33.040Z,997.01
2016-11-26T14:02:43.393Z,996.99
2016-11-26T14:03:53.424Z,997.01
2016-11-26T14:05:03.445Z,997.01
2016-11-26T14:06:13.528Z,996.97
2016-11-26T14:07:23.255Z,997.01
2016-11-26T14:08:33.590Z,997.02
2016-11-26T14:09:43.912Z,997.03
2016-11-26T14:10:53.634Z,997.08
2016-11-26T14:12:03.662Z,997.01
2016-11-26T14:13:13.359Z,997.06
2016-11-26T14:14:23.379Z,997.05
2016-11-26T14:15:33.396Z,997.07
2016-11-26T14:16:42.807Z,997.02
2016-11-26T14:17:53.152Z,997.03
2016-11-26T14:19:03.487Z,997.03
2016-11-26T14:20:13.512Z,997.05
2016-11-26T14:21:23.230Z,997.06
2016-11-26T14:22:33.253Z,997.04
2016-11-26T14:23:43.602Z,997.03
2016-11-26T14:24:53.965Z,997.04
2016-11-26T14:26:04.296Z,997.09
2016-11-26T14:27:14.626Z,997.09
2016-11-26T14:28:24.960Z,997.05
2016-11-26T14:29:34.991Z,997.03
2016-11-26T14:30:45.330Z,996.99
2016-11-26T14:31:55.669Z,996.98
2016-11-26T14:33:05.997Z,997.01
2016-11-26T14:34:16.343Z,997.01
2016-11-26T14:35:26.679Z,997.05
2016-11-26T14:36:36.700Z,997.04
2016-11-26T14:37:46.399Z,996.99
2016-11-26T14:38:56.435Z,996.98
2016-11-26T14:40:06.452Z,996.93
2016-11-26T14:41:16.471Z,996.94
2016-11-26T14:42:26.501Z,996.99
2016-11-26T14:43:36.843Z,996.99
2016-11-26T14:44:46.878Z,996.98
2016-11-26T14:45:56.599Z,996.99
2016-11-26T14:47:06.316Z,997
2016-11-26T14:48:16.638Z,996.98
2016-11-26T14:49:26.966Z,996.97
2016-11-26T14:50:36.986Z,996.99
2016-11-26T14:51:47.333Z,996.98
2016-11-26T14:52:57.676Z,996.99